GFN weather

Grafton Airport
New South Wales, Australia

Public forecast

Using degrees Celsius for public forecast. Weather courtesy of forecast.io.

METAR (pilot weather report)

Retrieved 2019/02/20 10:00 UTC (59 minutes ago):

YGFN 201000Z AUTO 18006KT 9999 // SCT120 26/20 Q1010

TAF (pilot weather forecast)

Forecast is more than 12 hours old.

Closest forecast is Gold Coast Airport, 99.0 nm (183.3 km) NNE. Retrieved 2019/02/19 00:00 UTC (1 day ago):

TAF YBCG 192316Z 2000/2024 16012KT 9999 FEW025 BKN035 FM200100 12014KT 9999 FEW030 FM200900 15012KT 9999 SCT020 FM201200 18008KT 9999 -SHRA BKN018 BKN030 FM202200 16018KT 9999 -SHRA SCT020 SCT040 TEMPO 2018/2022 5000 -SHRA BKN010